Weather observations for the past three days for
Walterboro Lowcountry Regional Airport
Imperial (Metric)
Date Time (edt) Wind (mph) Vis. (mi.) Weather Sky Cond. Temperature (ºF) Relative Humidity Wind Chill (°F) Heat Index (°F) Pressure Precipitation (in)
Air Dwpt 6 hour altimeter (in) sea level (mb) 1 hr 3 hr 6 hr
Max. Min.
04 22:55 Calm 10.00 Fair CLR 59 48.2 68% 30.06 0.0
04 22:35 S 3 10.00 Fair CLR 60.8 48.2 63% 30.06 0.0
04 22:15 Calm 10.00 Fair CLR 60.8 48.2 63% 30.05 0.0
04 21:55 SE 3 10.00 Fair CLR 62.6 46.4 56% 30.05 0.0
04 21:35 S 5 10.00 Fair CLR 62.6 46.4 56% 30.05 0.0
04 21:15 S 6 10.00 Fair CLR 64.4 46.4 52% 30.05 0.0
04 20:55 S 6 10.00 Fair CLR 64.4 46.4 52% 30.05 0.0
04 20:35 S 7 10.00 Fair CLR 66.2 46.4 49% 30.04 0.0
04 20:15 S 6 10.00 Fair CLR 68 46.4 46% 30.04 0.0
04 19:55 S 9 10.00 Fair CLR 68 46.4 46% 30.03 0.0
04 19:35 S 10 10.00 Fair CLR 69.8 48.2 46% 30.03 0.0
04 19:15 SE 9 10.00 Fair CLR 69.8 48.2 46% 30.02 0.0
04 18:55 S 9 10.00 Fair CLR 71.6 46.4 41% 30.03 0.0
04 18:35 S 14 G 20 10.00 Fair CLR 73.4 46.4 38% 30.02 0.0
04 18:15 S 14 10.00 Fair CLR 73.4 46.4 38% 30.02 0.0
04 17:55 S 15 G 18 10.00 Fair CLR 73.4 46.4 38% 30.02 0.0
04 17:35 SE 12 G 22 10.00 Fair CLR 75.2 46.4 36% 77 30.02 0.0
04 17:15 S 13 10.00 Fair CLR 75.2 46.4 36% 77 30.02 0.0
04 16:55 S 16 10.00 Fair CLR 77 44.6 32% 78 30.02 0.0
04 16:35 S 13 10.00 Fair CLR 78.8 44.6 30% 79 30.01 0.0
04 16:15 S 12 G 17 10.00 Fair CLR 78.8 42.8 28% 78 30.02 0.0
04 15:55 S 9 G 18 10.00 Fair CLR 78.8 42.8 28% 78 30.02 0.0
04 15:35 SW 10 10.00 Fair CLR 78.8 42.8 28% 78 30.03 0.0
04 15:15 S 6 10.00 Fair CLR 77 41 28% 78 30.04 0.0
04 14:55 E 3 10.00 Fair CLR 77 41 28% 78 30.04 0.0
04 14:35 SW 7 10.00 Fair CLR 78.8 42.8 28% 78 30.05 0.0
04 14:15 Calm 10.00 Fair CLR 77 41 28% 78 30.05 0.0
04 13:55 SE 7 10.00 Fair CLR 77 41 28% 78 30.06 0.0
04 13:35 Calm 10.00 Fair CLR 75.2 37.4 25% 77 30.06 0.0
04 13:15 SW 6 10.00 Fair CLR 75.2 39.2 27% 77 30.07 0.0
04 12:55 W 5 10.00 Fair CLR 75.2 39.2 27% 77 30.07 0.0
04 12:35 NW 3 G 17 10.00 Fair CLR 73.4 41 31% 30.08 0.0
04 12:15 SW 5 10.00 Fair CLR 73.4 41 31% 30.09 0.0
04 11:55 S 9 10.00 Fair CLR 73.4 42.8 33% 30.09 0.0
04 11:35 SW 5 10.00 Fair CLR 73.4 41 31% 30.09 0.0
04 11:15 W 6 10.00 Fair CLR 71.6 44.6 38% 30.09 0.0
04 10:55 W 7 10.00 Fair CLR 69.8 46.4 43% 30.09 0.0
04 10:35 W 3 10.00 Fair CLR 69.8 48.2 46% 30.1 0.0
04 10:15 W 5 10.00 Fair CLR 68 50 53% 30.1 0.0
04 09:55 W 7 10.00 Fair CLR 66.2 50 56% 30.1 0.0
04 09:35 W 7 10.00 Fair CLR 64.4 51.8 64% 30.1 0.0
04 09:15 W 8 10.00 Fair CLR 62.6 51.8 68% 30.1 0.0
04 08:55 W 5 10.00 Fair CLR 60.8 51.8 72% 30.11 0.0
04 08:35 W 5 10.00 Fair CLR 59 51.8 77% 30.1 0.0
04 08:15 W 6 10.00 Fair CLR 55.4 50 82% 30.1 0.0
04 07:55 Calm 10.00 Fair CLR 51.8 50 94% 30.1 0.0
04 07:35 Calm 10.00 Fair CLR 50 46.4 88% 30.09 0.0
04 07:15 Calm 10.00 Fair CLR 46.4 44.6 93% 30.09 0.0
04 06:55 Calm 10.00 Fair CLR 44.6 42.8 93% 30.08 0.0
04 06:35 Calm 10.00 Fair CLR 44.6 42.8 93% 30.08 0.0
04 06:15 Calm 10.00 Fair CLR 44.6 42.8 93% 30.08 0.0
04 05:55 Calm 10.00 Fair CLR 44.6 42.8 93% 30.08 0.0
04 05:35 Calm 10.00 Fair CLR 44.6 42.8 93% 30.08 0.0
04 05:15 Calm 10.00 Fair CLR 44.6 42.8 93% 30.08 0.0
04 04:55 Calm 10.00 Fair CLR 46.4 44.6 93% 30.08 0.0
04 04:35 Calm 10.00 Fair CLR 46.4 44.6 93% 30.08 0.0
04 04:15 Calm 10.00 Fair CLR 46.4 44.6 93% 30.08 0.0
04 03:55 Calm 10.00 Fair CLR 46.4 44.6 93% 30.08 0.0
04 03:35 Calm 10.00 Fair CLR 46.4 44.6 93% 30.09 0.0
04 03:15 Calm 10.00 Fair CLR 46.4 44.6 93% 30.1 0.0
04 02:55 Calm 10.00 Fair CLR 48.2 44.6 87% 30.1 0.0
04 02:35 Calm 10.00 Fair CLR 46.4 44.6 93% 30.1 0.0
04 02:15 Calm 10.00 Fair CLR 48.2 46.4 94% 30.1 0.0
04 01:50 Calm 10.00 Fair CLR 48.2 46.4 94% 30.1 0.0
04 01:35 Calm 10.00 Fair CLR 48.2 46.4 94% 30.1 0.0
04 01:15 Calm 10.00 Fair CLR 48.2 46.4 94% 30.1 0.0
04 00:55 Calm 10.00 Fair CLR 50 46.4 88% 30.1 0.0
04 00:35 Calm 10.00 Fair CLR 50 46.4 88% 30.1 0.0
04 00:15 Calm 10.00 Fair CLR 50 46.4 88% 30.1 0.0
03 23:55 Calm 10.00 Fair CLR 51.8 48.2 88% 30.1 0.0
03 23:35 Calm 10.00 Fair CLR 51.8 48.2 88% 30.1 0.0
03 23:15 Calm 10.00 Fair CLR 51.8 46.4 82% 30.11 0.0
03 22:55 Calm 10.00 Fair CLR 53.6 48.2 82% 30.1 0.0
03 22:35 Calm 10.00 Fair CLR 55.4 48.2 77% 30.1 0.0
03 22:15 S 3 10.00 Fair CLR 57.2 48.2 72% 30.1 0.0
03 21:55 SE 3 10.00 Fair CLR 57.2 46.4 67% 30.09 0.0
03 21:35 S 5 10.00 Fair CLR 59 46.4 63% 30.09 0.0
03 21:15 S 5 10.00 Fair CLR 60.8 46.4 59% 30.08 0.0
03 20:55 S 5 10.00 Fair CLR 60.8 46.4 59% 30.07 0.0
03 20:35 S 7 10.00 Fair CLR 60.8 46.4 59% 30.07 0.0
03 20:10 S 8 10.00 Fair CLR 62.6 46.4 56% 30.06 0.0
03 19:55 SE 6 10.00 Fair CLR 64.4 46.4 52% 30.05 0.0
03 19:35 S 9 10.00 Partly Cloudy SCT070 66.2 48.2 52% 30.05 0.0
03 19:15 SE 9 10.00 Partly Cloudy SCT070 69.8 41 35% 30.04 0.0
03 18:55 W 3 10.00 Fair CLR 69.8 41 35% 30.04 0.0
03 18:35 W 6 10.00 Partly Cloudy SCT065 71.6 41 33% 30.04 0.0
03 18:15 SW 6 10.00 Partly Cloudy SCT065 71.6 41 33% 30.04 0.0
03 17:55 W 8 10.00 Partly Cloudy SCT065 71.6 41 33% 30.04 0.0
03 17:35 SW 5 10.00 Mostly Cloudy BKN065 71.6 42.8 36% 30.04 0.0
03 17:15 SW 5 10.00 Overcast OVC065 69.8 42.8 38% 30.04 0.0
03 16:55 Calm 10.00 Mostly Cloudy BKN065 69.8 42.8 38% 30.05 0.0
03 16:35 SW 7 10.00 Mostly Cloudy BKN070 69.8 42.8 38% 30.05 0.0
03 16:15 S 3 10.00 Mostly Cloudy BKN060 BKN070 71.6 42.8 36% 30.06 0.0
03 15:55 SW 6 10.00 Mostly Cloudy BKN060 BKN070 71.6 42.8 36% 30.06 0.0
03 15:35 SW 7 10.00 Mostly Cloudy BKN070 68 41 38% 30.08 0.0
03 15:15 NW 3 10.00 Partly Cloudy SCT060 69.8 42.8 38% 30.09 0.0
03 14:55 W 3 10.00 Mostly Cloudy BKN060 BKN070 69.8 42.8 38% 30.1 0.0
03 14:35 Calm 10.00 Overcast OVC060 68 42.8 40% 30.11 0.0
03 14:15 W 6 10.00 Overcast OVC060 69.8 42.8 38% 30.11 0.0
03 13:55 W 3 10.00 Mostly Cloudy BKN060 BKN070 68 42.8 40% 30.12 0.0
03 13:35 W 3 10.00 Mostly Cloudy SCT050 BKN060 66.2 42.8 43% 30.12 0.0
03 13:15 W 5 10.00 Mostly Cloudy BKN050 BKN065 68 42.8 40% 30.13 0.0
03 12:55 W 6 10.00 Mostly Cloudy BKN048 BKN055 66.2 44.6 46% 30.13 0.0
03 12:35 NE 3 10.00 Partly Cloudy SCT048 66.2 44.6 46% 30.14 0.0
03 12:15 W 5 10.00 Partly Cloudy SCT046 64.4 44.6 49% 30.14 0.0
03 11:55 W 5 10.00 Fair CLR 64.4 44.6 49% 30.14 0.0
03 11:35 N 5 10.00 Fair CLR 64.4 46.4 52% 30.15 0.0
03 11:15 N 5 10.00 Partly Cloudy SCT030 64.4 50 60% 30.15 0.0
03 10:55 N 5 10.00 Partly Cloudy SCT021 SCT026 62.6 50 64% 30.15 0.0
03 10:35 N 5 10.00 Partly Cloudy SCT021 62.6 51.8 68% 30.15 0.0
03 10:15 N 6 10.00 Fair CLR 60.8 51.8 72% 30.15 0.0
03 09:55 NE 6 10.00 Fair CLR 59 51.8 77% 30.15 0.0
03 09:35 N 6 10.00 Fair CLR 57.2 51.8 82% 30.14 0.0
03 09:15 NW 6 10.00 Fair CLR 55.4 51.8 88% 30.13 0.0
03 08:55 N 3 10.00 Fair CLR 53.6 51.8 94% 30.14 0.0
03 08:35 Calm 10.00 Fair CLR 53.6 50 88% 30.14 0.0
03 08:15 Calm 10.00 Fair CLR 50 50 100% 30.13 0.0
03 07:55 Calm 7.00 Fair CLR 48.2 46.4 94% 30.12 0.0
03 07:35 Calm 10.00 Fair CLR 46.4 44.6 93% 30.12 0.0
03 07:15 Calm 2.00 Fog/Mist BKN002 42.8 42.8 100% 30.11 0.0
03 06:55 Calm 3.00 Fog/Mist BKN002 42.8 42.8 100% 30.09 0.0
03 06:35 Calm 0.25 Fog BKN002 44.6 42.8 93% 30.08 0.0
03 06:15 Calm 1.00 Fog/Mist OVC002 44.6 44.6 100% 30.08 0.0
03 05:55 Calm 0.50 Fog OVC002 44.6 42.8 93% 30.07 0.0
03 05:35 Calm 0.75 Fog/Mist OVC002 42.8 42.8 100% 30.07 0.0
03 05:15 Calm 2.00 Fog/Mist SCT002 44.6 42.8 93% 30.06 0.0
03 04:55 Calm 5.00 Fog/Mist CLR 44.6 44.6 100% 30.06 0.0
03 04:35 Calm 10.00 Fair CLR 44.6 44.6 100% 30.06 0.0
03 04:15 Calm 7.00 Partly Cloudy SCT080 44.6 44.6 100% 30.06 0.0
03 03:55 Calm 1.50 Fog/Mist SCT002 OVC080 44.6 44.6 100% 30.05 0.0
03 03:35 Calm 4.00 Fog/Mist SCT002 BKN080 44.6 44.6 100% 30.04 0.0
03 03:15 Calm 2.00 Fog/Mist SCT002 SCT085 BKN090 44.6 44.6 100% 30.04 0.0
03 02:50 Calm 1.00 Fog/Mist BKN002 OVC085 46.4 46.4 100% 30.03 0.0
03 02:35 Calm 1.25 Fog/Mist SCT002 SCT085 46.4 46.4 100% 30.03 0.0
03 02:15 Calm 7.00 Partly Cloudy SCT085 50 48.2 94% 30.03 0.0
03 01:55 N 3 10.00 Mostly Cloudy BKN085 50 48.2 94% 30.03 0.0
03 01:35 NW 3 10.00 Partly Cloudy SCT085 50 50 100% 30.04 0.0
03 01:15 NW 3 7.00 Mostly Cloudy BKN085 50 50 100% 30.04 0.0
03 00:55 NW 3 10.00 Overcast OVC085 50 50 100% 30.03 0.0
03 00:35 NW 3 10.00 Overcast OVC080 51.8 50 94% 30.02 0.0
03 00:15 NW 3 7.00 Overcast OVC070 50 50 100% 30.02 0.0
02 23:55 Calm 7.00 Overcast BKN070 OVC095 50 50 100% 30.01 0.0
02 23:35 Calm 5.00 Fog/Mist BKN070 50 48.2 94% 30.01 0.0
02 23:15 Calm 4.00 Fog/Mist CLR 50 48.2 94% 30 0.0
02 22:55 Calm 5.00 Fog/Mist CLR 50 50 100% 29.98 0.0
02 22:35 Calm 7.00 Fair CLR 51.8 50 94% 29.98 0.0
02 22:15 Calm 10.00 Fair CLR 51.8 51.8 100% 29.98 0.0
02 21:55 Calm 10.00 Partly Cloudy SCT100 51.8 51.8 100% 29.97 0.0
02 21:35 NW 3 10.00 Mostly Cloudy BKN100 53.6 51.8 94% 29.96 0.0
02 21:15 N 3 10.00 Overcast SCT012 OVC100 53.6 51.8 94% 29.96 0.0
02 20:55 N 5 10.00 Overcast BKN009 OVC100 53.6 51.8 94% 29.95 0.0
02 20:35 N 5 10.00 Overcast OVC009 53.6 51.8 94% 29.94 0.0
02 20:15 N 5 10.00 Overcast SCT010 BKN015 OVC085 53.6 51.8 94% 29.93 0.0
02 19:55 N 3 10.00 Overcast SCT008 BKN015 OVC075 55.4 51.8 88% 29.93 0.0
02 19:35 N 5 10.00 Overcast SCT008 BKN013 OVC075 55.4 51.8 88% 29.92 0.0
02 19:15 N 6 10.00 Overcast OVC013 55.4 53.6 94% 29.91 0.0
02 18:55 N 7 10.00 Overcast SCT008 OVC015 55.4 53.6 94% 29.91 0.0
02 18:35 N 7 7.00 Overcast OVC010 55.4 53.6 94% 29.91 0.0
02 18:15 N 6 7.00 Overcast OVC010 55.4 53.6 94% 29.9 0.0
02 17:55 N 8 10.00 Overcast BKN010 OVC013 55.4 53.6 94% 29.9 0.0
02 17:35 N 10 10.00 Overcast BKN008 OVC013 55.4 53.6 94% 29.89 0.0
02 17:15 N 10 10.00 Overcast BKN008 OVC015 55.4 53.6 94% 29.88 0.0
02 16:55 N 8 10.00 Overcast BKN010 OVC015 57.2 55.4 94% 29.87 0.0
02 16:35 N 9 10.00 Overcast BKN012 BKN017 OVC040 57.2 53.6 88% 29.87 0.0
02 16:15 N 9 10.00 Overcast BKN008 OVC012 57.2 55.4 94% 29.87 0.0
02 15:55 N 8 5.00 Light Rain BKN008 OVC011 55.4 55.4 100% 29.87 0.0 0.02
02 15:35 NE 10 7.00 Light Rain BKN006 BKN011 OVC026 55.4 55.4 100% 29.88 0.0 0.02
02 15:15 N 10 1.75 Light Rain OVC006 57.2 55.4 94% 29.87 0.0 0.02
02 14:55 N 8 2.00 Light Rain OVC008 57.2 55.4 94% 29.88 0.0 0.04
02 14:30 N 7 3.00 Light Rain BKN010 OVC013 59 57.2 94% 29.86 0.0 0.02
02 14:15 N 6 7.00 Light Rain OVC010 59 57.2 94% 29.87 0.0 0.01
02 13:55 N 5 10.00 Light Rain BKN008 BKN012 OVC028 59 55.4 88% 29.87 0.0 0.01
02 13:35 N 7 10.00 Overcast OVC008 59 57.2 94% 29.86 0.0
02 13:15 N 8 10.00 Light Rain BKN005 OVC011 59 57.2 94% 29.86 0.0
02 12:55 N 5 7.00 Light Rain BKN009 BKN013 OVC025 57.2 55.4 94% 29.88 0.0 0.05
02 12:35 NW 3 10.00 Light Rain SCT009 SCT013 OVC023 57.2 55.4 94% 29.91 0.0 0.01
02 12:10 N 7 10.00 Light Rain OVC023 57.2 55.4 94% 29.87 0.0
02 11:55 NE 8 10.00 Light Rain OVC023 57.2 55.4 94% 29.86 0.0 0.06
02 11:30 NE 8 7.00 Light Rain SCT006 SCT010 OVC023 55.4 55.4 100% 29.89 0.0 0.04
02 11:15 N 7 10.00 Light Rain BKN008 BKN013 OVC021 55.4 55.4 100% 29.9 0.0 0.01
02 10:55 N 6 7.00 Light Rain BKN008 OVC021 57.2 55.4 94% 29.9 0.0 0.14
02 10:35 N 6 5.00 Rain BKN023 BKN049 OVC060 55.4 55.4 100% 29.9 0.0 0.11
02 10:15 NE 8 5.00 Rain BKN018 OVC024 55.4 55.4 100% 29.89 0.0 0.06
02 09:55 N 8 7.00 Rain OVC018 55.4 55.4 100% 29.9 0.0 0.14
02 09:35 N 10 5.00 Rain SCT020 BKN029 OVC070 55.4 55.4 100% 29.88 0.0 0.1
02 09:15 N 8 5.00 Rain SCT009 BKN055 OVC070 55.4 53.6 94% 29.88 0.0 0.06
02 08:55 N 10 5.00 Rain SCT006 BKN011 OVC050 59 55.4 88% 29.88 0.0 0.19
02 08:35 N 5 4.00 Rain BKN006 BKN012 OVC050 59 59 100% 29.87 0.0 0.12
02 08:15 N 5 4.00 Rain SCT007 BKN010 OVC050 60.8 59 94% 29.88 0.0 0.07
02 07:55 NW 3 7.00 Rain BKN007 OVC010 60.8 60.8 100% 29.88 0.0 0.01
02 07:35 N 3 10.00 Overcast SCT005 BKN012 OVC095 60.8 60.8 100% 29.85 0.0
02 07:15 N 5 10.00 Overcast SCT020 OVC095 60.8 59 94% 29.84 0.0
02 06:55 N 6 10.00 Light Rain SCT039 SCT070 OVC095 60.8 60.8 100% 29.83 0.0 0.04
02 06:35 Calm 7.00 Light Rain SCT005 BKN038 OVC070 60.8 60.8 100% 29.85 0.0 0.03
02 06:15 N 6 5.00 Light Rain BKN003 BKN008 OVC041 60.8 60.8 100% 29.85 0.0 0.02
02 05:55 Calm 4.00 Light Rain BKN005 OVC011 60.8 60.8 100% 29.87 0.0 0.09
02 05:35 Calm 5.00 Rain SCT005 BKN011 OVC042 60.8 60.8 100% 29.88 0.0 0.05
02 05:15 Calm 5.00 Light Rain SCT002 BKN038 OVC044 60.8 60.8 100% 29.88 0.0 0.02
02 04:55 Calm 7.00 Light Rain BKN002 OVC009 60.8 60.8 100% 29.88 0.0 0.04
02 04:35 N 3 5.00 Light Rain BKN002 BKN009 OVC034 62.6 60.8 94% 29.87 0.0 0.03
02 04:15 Calm 5.00 Light Rain SCT002 BKN010 OVC034 62.6 60.8 94% 29.88 0.0 0.01
02 03:55 Calm 4.00 Rain OVC002 62.6 60.8 94% 29.87 0.0 0.09
02 03:35 Calm 4.00 Light Rain BKN002 BKN008 OVC017 62.6 60.8 94% 29.87 0.0 0.06
02 03:15 Calm 3.00 Rain SCT002 SCT008 OVC016 62.6 62.6 100% 29.88 0.0 0.03
02 02:55 NW 3 2.50 Light Rain SCT008 BKN018 OVC035 62.6 62.6 100% 29.89 0.0 0.02
02 02:35 Calm 5.00 Light Rain SCT017 BKN031 OVC038 62.6 62.6 100% 29.88 0.0 0.01
02 02:15 Calm 4.00 Light Rain BKN005 BKN019 OVC040 62.6 62.6 100% 29.89 0.0
02 01:55 Calm 4.00 Light Rain BKN005 BKN024 OVC038 62.6 62.6 100% 29.9 0.0 0.03
02 01:35 Calm 4.00 Light Rain SCT003 BKN037 OVC050 62.6 60.8 94% 29.9 0.0 0.03
02 01:15 Calm 7.00 Light Rain SCT003 BKN039 OVC110 62.6 60.8 94% 29.89 0.0
02 00:55 Calm 7.00 Light Rain BKN003 BKN019 OVC110 62.6 60.8 94% 29.88 0.0 0.01
02 00:35 NE 3 5.00 Light Rain OVC003 62.6 62.6 100% 29.88 0.0 0.01
02 00:15 Calm 7.00 Light Rain OVC003 62.6 60.8 94% 29.9 0.0
01 23:55 Calm 7.00 Overcast BKN003 OVC041 62.6 60.8 94% 29.9 0.0
01 23:35 SE 5 7.00 Overcast OVC003 62.6 62.6 100% 29.9 0.0
Date Time (edt) Wind (mph) Vis. (mi.) Weather Sky Cond. Air Dwpt Max. Min. Relative Humidity Wind Chill (°F) Heat Index (°F) altimeter (in) sea level (mb) 1 hr 3 hr 6 hr
6 hour
Temperature (ºF) Pressure Precipitation (in)